Accueil
METAR-TAF:

METAR-TAF

Aéroports :

Inukjuak, Québec, Canada

latitude: 58-28N, longitude: 078-05W, altitude: 25 m

Observation

Le bulletin a été fait il y a 17 minutes, à 04:00 UTC
Vent 4 kt de sud-ouest
Température -30°C
Humidité 75%
Pression 1011 hPa
Visibilité: 14.5 km
Ciel clair

METAR: CYPH 240400Z AUTO 22004KT 9SM CLR M30/M33 A2986 RMK SLP118

Heure: 23:17 (04:17 UTC)

Prévision

Le bulletin a été fait il y a 4 heures et 39 minutes, à 23:38 UTC
Prévision valable du 24 à 00 UTC au 24 à 12 UTC
Vent 10 kt de ouest/sud-ouest
Visibilité: 10 km
Quelques nuages à une hauteur de 1500 ft
Temporairement
du 24 à 00 UTC au 24 à 12 UTC
Visibilité: 8.0 km
Nuages fragmentés à une hauteur de 1500 ft
cristaux de glace

TAF: CYPH 232338Z 2400/2412 24010KT P6SM FEW015 TEMPO 2400/2412 5SM IC BKN015 RMK FCST BASED ON AUTO OBS. NXT FCST BY 240600Z

Observations et prévisions météorologiques de plus de 4000 aéroports (messages METAR et TAF).

Les stations disponibles sont représentées par des disques jaunes et rouges sur la carte.

Passer la souris dessus pour voir le nom de la station.

Cliquer dessus pour voir les observations et prévisions météorologiques.

Pour changer de carte: cliquez sur les boutons verts avec une croix noire pour zoomer, sur le bouton vert avec un tiret pour effectuer un zoom arrière, ou sur les flèches vertes pour les cartes adjacentes.


METAR-TAF: